createdAt,value
2022-08-05T00:00:35.109Z,9.668072
2022-08-05T00:01:35.908Z,9.668020
2022-08-05T00:02:35.123Z,9.667983
2022-08-05T00:03:34.021Z,9.668043
2022-08-05T00:04:34.075Z,9.668055
2022-08-05T00:06:04.859Z,9.667995
2022-08-05T00:06:35.942Z,9.668034
2022-08-05T00:08:00.756Z,9.668057
2022-08-05T00:08:36.122Z,9.668159
2022-08-05T00:09:33.999Z,9.668152
2022-08-05T00:10:33.983Z,9.668065
2022-08-05T00:11:35.166Z,9.668061
2022-08-05T00:12:34.997Z,9.668079
2022-08-05T00:13:38.800Z,9.668102
2022-08-05T00:14:33.954Z,9.668089
2022-08-05T00:15:55.016Z,9.668078
2022-08-05T00:16:35.890Z,9.668072
2022-08-05T00:17:33.932Z,9.668086
2022-08-05T00:18:33.897Z,9.668036
2022-08-05T00:19:45.850Z,9.668042
2022-08-05T00:20:36.902Z,9.668041
2022-08-05T00:21:35.640Z,9.667998
2022-08-05T00:22:33.877Z,9.668074
2022-08-05T00:23:46.060Z,9.668107
2022-08-05T00:24:34.877Z,9.667980
2022-08-05T00:25:45.590Z,9.668002
2022-08-05T00:26:34.837Z,9.668009
2022-08-05T00:27:35.758Z,9.667993
2022-08-05T00:28:33.861Z,9.668029
2022-08-05T00:29:37.835Z,9.667998
2022-08-05T00:30:33.827Z,9.667983
2022-08-05T00:31:54.309Z,9.668023
2022-08-05T00:32:34.799Z,9.668033
2022-08-05T00:34:54.361Z,9.667991
2022-08-05T00:34:56.204Z,9.667994
2022-08-05T00:35:34.784Z,9.668012
2022-08-05T00:37:09.860Z,9.668022
2022-08-05T00:37:50.906Z,9.667982
2022-08-05T00:38:34.759Z,9.667945
2022-08-05T00:39:37.103Z,9.667944
2022-08-05T00:40:34.793Z,9.667994
2022-08-05T00:41:51.578Z,9.668002
2022-08-05T00:42:34.733Z,9.667993
2022-08-05T00:43:47.173Z,9.667956
2022-08-05T00:44:34.709Z,9.668009
2022-08-05T00:45:43.033Z,9.667958
2022-08-05T00:46:42.521Z,9.667982
2022-08-05T00:47:56.624Z,9.667955
2022-08-05T00:48:34.705Z,9.668005
2022-08-05T00:49:44.595Z,9.667923
2022-08-05T00:50:34.664Z,9.667977
2022-08-05T00:51:50.639Z,9.668015
2022-08-05T00:52:34.635Z,9.668020
2022-08-05T00:53:45.228Z,9.667990
2022-08-05T00:54:34.694Z,9.667976
2022-08-05T00:55:34.203Z,9.667965
2022-08-05T00:56:35.404Z,9.667968
2022-08-05T00:57:38.399Z,9.667942
2022-08-05T00:58:35.411Z,9.667939
2022-08-05T00:59:34.719Z,9.667938
2022-08-05T01:00:34.623Z,9.667915
2022-08-05T01:01:48.034Z,9.667997
2022-08-05T01:02:34.562Z,9.667906
2022-08-05T01:03:34.171Z,9.668004
2022-08-05T01:04:33.553Z,9.667983
2022-08-05T01:05:33.529Z,9.667905
2022-08-05T01:06:33.555Z,9.667953
2022-08-05T01:07:33.513Z,9.667989
2022-08-05T01:08:42.914Z,9.667979
2022-08-05T01:09:35.018Z,9.667974
2022-08-05T01:10:33.537Z,9.667935
2022-08-05T01:11:37.386Z,9.667945
2022-08-05T01:12:33.493Z,9.668015
2022-08-05T01:13:58.735Z,9.667978
2022-08-05T01:14:34.503Z,9.667953
2022-08-05T01:15:36.471Z,9.667925
2022-08-05T01:16:34.415Z,9.667949
2022-08-05T01:17:40.189Z,9.667917
2022-08-05T01:18:34.490Z,9.667982
2022-08-05T01:20:01.682Z,9.668041
2022-08-05T01:20:34.442Z,9.668018
2022-08-05T01:21:38.235Z,9.667992
2022-08-05T01:22:34.406Z,9.668006
2022-08-05T01:23:34.908Z,9.667932
2022-08-05T01:24:33.423Z,9.667937
2022-08-05T01:25:40.210Z,9.668056
2022-08-05T01:26:34.382Z,9.668086
2022-08-05T01:27:33.369Z,9.668071
2022-08-05T01:28:33.469Z,9.668011
2022-08-05T01:29:34.916Z,9.668071
2022-08-05T01:30:34.023Z,9.668078
2022-08-05T01:31:33.368Z,9.668059
2022-08-05T01:32:34.324Z,9.668016
2022-08-05T01:33:35.440Z,9.668053
2022-08-05T01:34:33.321Z,9.668009
2022-08-05T01:35:50.708Z,9.668014
2022-08-05T01:36:34.305Z,9.668054
2022-08-05T01:37:34.298Z,9.667989
2022-08-05T01:38:33.330Z,9.668003
2022-08-05T01:39:36.079Z,9.668064
2022-08-05T01:40:34.269Z,9.668003
2022-08-05T01:41:33.288Z,9.668061
2022-08-05T01:42:33.257Z,9.668037
2022-08-05T01:43:33.281Z,9.668047
2022-08-05T01:44:34.234Z,9.668041
2022-08-05T02:04:40.618Z,9.668009
2022-08-05T02:05:39.839Z,9.668106
2022-08-05T02:06:39.835Z,9.668095
2022-08-05T02:07:39.809Z,9.667933
2022-08-05T02:08:44.749Z,9.668049
2022-08-05T02:09:41.797Z,9.667985
2022-08-05T02:10:39.905Z,9.667935
2022-08-05T02:11:42.167Z,9.668012
2022-08-05T02:12:40.778Z,9.667972
2022-08-05T02:13:53.233Z,9.667990
2022-08-05T02:14:40.755Z,9.667957
2022-08-05T02:16:16.452Z,9.667939
2022-08-05T02:16:39.735Z,9.667937
2022-08-05T02:18:31.767Z,9.668035
2022-08-05T02:18:40.731Z,9.668034
2022-08-05T02:19:47.382Z,9.668010
2022-08-05T02:20:40.809Z,9.667999
2022-08-05T02:21:43.406Z,9.667982
2022-08-05T02:22:40.720Z,9.667943
2022-08-05T02:23:39.678Z,9.668045
2022-08-05T02:24:39.673Z,9.668041
2022-08-05T02:25:49.024Z,9.668017
2022-08-05T02:26:41.088Z,9.668034
2022-08-05T02:27:57.976Z,9.668072
2022-08-05T02:28:41.783Z,9.667985
2022-08-05T02:29:58.730Z,9.667974
2022-08-05T02:30:54.215Z,9.667994
2022-08-05T02:31:40.630Z,9.668010
2022-08-05T02:32:39.609Z,9.668026
2022-08-05T02:33:39.654Z,9.667984
2022-08-05T02:34:40.022Z,9.667947
2022-08-05T02:35:44.893Z,9.667958
2022-08-05T02:36:40.576Z,9.667966
2022-08-05T02:37:39.637Z,9.667989
2022-08-05T02:38:39.581Z,9.667972
2022-08-05T02:39:41.143Z,9.667938
2022-08-05T02:40:40.522Z,9.667980
2022-08-05T02:41:57.539Z,9.667953
2022-08-05T02:42:40.540Z,9.667951
2022-08-05T02:44:06.886Z,9.667961
2022-08-05T02:44:40.538Z,9.667992
2022-08-05T02:45:52.783Z,9.667962
2022-08-05T02:46:53.456Z,9.667955
2022-08-05T02:48:06.337Z,9.667944
2022-08-05T02:48:40.506Z,9.668002
2022-08-05T02:49:40.591Z,9.667994
2022-08-05T02:50:39.479Z,9.667953
2022-08-05T02:52:03.750Z,9.667992
2022-08-05T02:52:40.465Z,9.667965
2022-08-05T02:53:40.423Z,9.667991
2022-08-05T02:54:41.129Z,9.667962
2022-08-05T02:55:54.009Z,9.667955
2022-08-05T02:56:40.443Z,9.667979
2022-08-05T02:58:10.788Z,9.668052
2022-08-05T02:58:43.644Z,9.668036
2022-08-05T02:59:50.310Z,9.668050
2022-08-05T03:00:40.399Z,9.668028
2022-08-05T03:01:39.463Z,9.668003
2022-08-05T03:02:39.948Z,9.668000
2022-08-05T03:04:02.709Z,9.668022
2022-08-05T03:04:40.399Z,9.667996
2022-08-05T03:06:54.598Z,9.668041
2022-08-05T03:06:55.753Z,9.668044
2022-08-05T03:08:01.698Z,9.667972
2022-08-05T03:08:42.398Z,9.667957
2022-08-05T03:09:43.887Z,9.667935
2022-08-05T03:10:40.358Z,9.667999
2022-08-05T03:11:54.671Z,9.668007
2022-08-05T03:12:40.296Z,9.667964
2022-08-05T03:13:51.002Z,9.667934
2022-08-05T03:14:46.117Z,9.667915
2022-08-05T03:15:40.299Z,9.667916
2022-08-05T03:16:39.282Z,9.667980
2022-08-05T03:17:41.548Z,9.667926
2022-08-05T03:18:39.263Z,9.667917
2022-08-05T03:19:39.305Z,9.667864
2022-08-05T03:20:39.274Z,9.667930
2022-08-05T03:21:41.729Z,9.667878
2022-08-05T03:22:44.198Z,9.667936
2022-08-05T03:23:40.264Z,9.667938
2022-08-05T03:24:39.210Z,9.667899
2022-08-05T03:26:04.473Z,9.668011
2022-08-05T03:26:40.243Z,9.667934
2022-08-05T03:27:58.905Z,9.667986
2022-08-05T03:28:40.194Z,9.667912
2022-08-05T03:29:44.691Z,9.667900
2022-08-05T03:30:41.221Z,9.667960
2022-08-05T03:31:56.052Z,9.667969
2022-08-05T03:32:40.162Z,9.668029
2022-08-05T03:33:49.264Z,9.668010
2022-08-05T03:34:40.141Z,9.667975
2022-08-05T03:35:41.729Z,9.667983
2022-08-05T03:36:39.153Z,9.668036
2022-08-05T03:37:46.597Z,9.667989
2022-08-05T03:38:40.099Z,9.667964
2022-08-05T03:39:59.357Z,9.667994
2022-08-05T03:40:40.146Z,9.668006
2022-08-05T03:41:46.710Z,9.668051
2022-08-05T03:42:51.423Z,9.668020
2022-08-05T03:44:08.201Z,9.668036
2022-08-05T03:44:40.091Z,9.668031
2022-08-05T03:45:57.468Z,9.668055
2022-08-05T03:46:40.125Z,9.668025
2022-08-05T04:04:10.677Z,9.668051
2022-08-05T04:05:06.211Z,9.667984
2022-08-05T04:06:06.181Z,9.668007
2022-08-05T04:07:06.206Z,9.667997
2022-08-05T04:08:14.697Z,9.667992
2022-08-05T04:09:07.165Z,9.667963
2022-08-05T04:10:06.152Z,9.667953
2022-08-05T04:11:06.161Z,9.667925
2022-08-05T04:12:24.585Z,9.667841
2022-08-05T04:13:07.148Z,9.667912
2022-08-05T04:14:06.156Z,9.668038
2022-08-05T04:15:06.126Z,9.668007
2022-08-05T04:16:06.124Z,9.667980
2022-08-05T04:17:06.101Z,9.667995
2022-08-05T04:18:07.413Z,9.667995
2022-08-05T04:19:10.700Z,9.667985
2022-08-05T04:20:06.109Z,9.667994
2022-08-05T04:21:06.076Z,9.668012
2022-08-05T04:22:11.638Z,9.668047
2022-08-05T04:23:08.071Z,9.668023
2022-08-05T04:24:08.903Z,9.667973
2022-08-05T04:25:07.796Z,9.668002
2022-08-05T04:26:06.046Z,9.667940
2022-08-05T04:27:06.044Z,9.667910
2022-08-05T04:28:12.726Z,9.667970
2022-08-05T04:29:07.217Z,9.667914
2022-08-05T04:30:06.119Z,9.667920
2022-08-05T04:31:08.263Z,9.667934
2022-08-05T04:32:06.007Z,9.667962
2022-08-05T04:33:06.000Z,9.667966
2022-08-05T04:34:18.717Z,9.667993
2022-08-05T04:35:06.972Z,9.668003
2022-08-05T04:36:10.831Z,9.668014
2022-08-05T04:37:06.957Z,9.667977
2022-08-05T04:38:06.816Z,9.668006
2022-08-05T04:39:05.971Z,9.667994
2022-08-05T04:40:06.026Z,9.667990
2022-08-05T04:41:05.978Z,9.668016
2022-08-05T04:42:05.918Z,9.667987
2022-08-05T04:43:05.936Z,9.667985
2022-08-05T04:44:09.621Z,9.668000
2022-08-05T04:45:05.920Z,9.667985
2022-08-05T04:46:05.886Z,9.667984
2022-08-05T04:47:09.467Z,9.668002
2022-08-05T04:48:05.859Z,9.667934
2022-08-05T04:49:05.864Z,9.667984
2022-08-05T04:50:11.194Z,9.668003
2022-08-05T04:51:11.199Z,9.667993
2022-08-05T04:52:07.785Z,9.667994
2022-08-05T04:53:05.859Z,9.667981
2022-08-05T04:54:05.813Z,9.668005
2022-08-05T04:55:14.569Z,9.667987
2022-08-05T04:56:33.214Z,9.667971
2022-08-05T04:57:06.805Z,9.667966
2022-08-05T04:58:05.789Z,9.667987
2022-08-05T04:59:24.015Z,9.668001
2022-08-05T05:00:06.821Z,9.667983
2022-08-05T05:01:05.831Z,9.667999
2022-08-05T05:02:37.402Z,9.667997
2022-08-05T05:03:07.340Z,9.668000
2022-08-05T05:04:05.748Z,9.667966
2022-08-05T05:06:37.051Z,9.668020
2022-08-05T05:06:40.468Z,9.667997
2022-08-05T05:11:04.437Z,9.668062
2022-08-05T05:12:36.705Z,9.668043
2022-08-05T05:13:04.697Z,9.668015
2022-08-05T05:14:04.429Z,9.668019
2022-08-05T05:15:04.446Z,9.668056
2022-08-05T05:16:06.994Z,9.667998
2022-08-05T05:17:56.566Z,9.668011
2022-08-05T05:18:05.383Z,9.668020
2022-08-05T05:19:18.932Z,9.668040
2022-08-05T05:20:06.419Z,9.668067
2022-08-05T05:21:05.546Z,9.668026
2022-08-05T05:22:23.106Z,9.668018
2022-08-05T05:23:08.023Z,9.668026
2022-08-05T05:24:09.129Z,9.668039
2022-08-05T05:25:16.750Z,9.668029
2022-08-05T05:26:05.343Z,9.668150
2022-08-05T05:27:04.346Z,9.668077
2022-08-05T05:28:04.331Z,9.668120
2022-08-05T05:29:10.170Z,9.668009
2022-08-05T05:30:05.483Z,9.668076
2022-08-05T05:31:05.581Z,9.668068
2022-08-05T05:32:04.308Z,9.668034
2022-08-05T05:33:16.269Z,9.668047
2022-08-05T05:34:05.266Z,9.668123
2022-08-05T05:35:04.288Z,9.668038
2022-08-05T05:36:04.266Z,9.668066
2022-08-05T05:37:04.263Z,9.667967
2022-08-05T05:38:05.631Z,9.667973
2022-08-05T05:39:04.348Z,9.668021
2022-08-05T05:40:04.215Z,9.667988
2022-08-05T05:41:04.206Z,9.668039
2022-08-05T05:42:04.221Z,9.668011
2022-08-05T05:43:04.205Z,9.668026
2022-08-05T05:44:04.188Z,9.667989
2022-08-05T05:45:05.229Z,9.667987
2022-08-05T05:46:05.294Z,9.668044
2022-08-05T05:47:13.268Z,9.668056
2022-08-05T05:48:05.567Z,9.668062
2022-08-05T05:49:06.476Z,9.668044
2022-08-05T05:50:05.126Z,9.668002
2022-08-05T05:51:15.299Z,9.668010
2022-08-05T05:52:05.937Z,9.668057
2022-08-05T05:53:20.849Z,9.668033
2022-08-05T05:54:05.149Z,9.667995
2022-08-05T05:55:07.446Z,9.668002
2022-08-05T05:56:05.120Z,9.667908
2022-08-05T05:57:04.088Z,9.667988
2022-08-05T05:58:05.075Z,9.668038
2022-08-05T05:59:05.378Z,9.667999
2022-08-05T06:00:04.101Z,9.668056
2022-08-05T06:01:12.858Z,9.667988
2022-08-05T06:02:05.068Z,9.667997
2022-08-05T06:03:40.239Z,9.667995
2022-08-05T06:04:05.078Z,9.667979
2022-08-05T06:05:10.193Z,9.667969
2022-08-05T06:06:05.010Z,9.667977
2022-08-05T06:07:04.567Z,9.667986
2022-08-05T06:08:04.036Z,9.668004
2022-08-05T06:09:04.251Z,9.667975
2022-08-05T06:10:08.327Z,9.667970
2022-08-05T06:11:05.970Z,9.667974
2022-08-05T06:12:03.999Z,9.668016
2022-08-05T06:13:04.006Z,9.667979
2022-08-05T06:14:03.993Z,9.667993
2022-08-05T06:15:03.963Z,9.668023
2022-08-05T06:16:30.546Z,9.668022
2022-08-05T06:17:22.129Z,9.668001
2022-08-05T06:18:04.949Z,9.667941
2022-08-05T06:19:05.722Z,9.668028
2022-08-05T06:20:03.936Z,9.668027
2022-08-05T06:21:03.914Z,9.668010
2022-08-05T06:22:03.895Z,9.668012
2022-08-05T06:23:04.177Z,9.668048
2022-08-05T06:24:03.900Z,9.668003
2022-08-05T06:25:59.642Z,9.667979
2022-08-05T06:26:13.928Z,9.668002
2022-08-05T06:27:04.864Z,9.667981
2022-08-05T06:28:11.918Z,9.668036
2022-08-05T06:29:23.471Z,9.667989
2022-08-05T06:30:17.853Z,9.667962
2022-08-05T06:31:11.202Z,9.667938
2022-08-05T06:32:04.828Z,9.667977
2022-08-05T06:33:04.824Z,9.667984
2022-08-05T06:34:07.735Z,9.668021
2022-08-05T06:35:15.246Z,9.668014
2022-08-05T06:36:09.729Z,9.668011
2022-08-05T06:37:04.787Z,9.667952
2022-08-05T06:38:10.016Z,9.667966
2022-08-05T06:39:05.811Z,9.667989
2022-08-05T06:40:03.794Z,9.667970
2022-08-05T06:41:03.771Z,9.668006
2022-08-05T06:42:03.944Z,9.667991
2022-08-05T06:43:03.762Z,9.667980
2022-08-05T06:44:03.728Z,9.667993
2022-08-05T06:45:05.601Z,9.668037
2022-08-05T06:46:07.026Z,9.668034
2022-08-05T06:47:03.733Z,9.668038
2022-08-05T06:48:37.078Z,9.668017
2022-08-05T06:49:07.545Z,9.668001
2022-08-05T06:50:05.095Z,9.668028
2022-08-05T06:51:03.731Z,9.668020
2022-08-05T06:52:04.691Z,9.667941
2022-08-05T06:53:19.604Z,9.667978
2022-08-05T06:54:04.688Z,9.667949
2022-08-05T06:55:03.675Z,9.667899
2022-08-05T06:56:03.646Z,9.667883
2022-08-05T06:57:13.827Z,9.667929
2022-08-05T06:58:20.285Z,9.667922
2022-08-05T06:59:08.667Z,9.667922
2022-08-05T07:00:03.615Z,9.667918
2022-08-05T07:01:03.676Z,9.667866
2022-08-05T07:02:03.614Z,9.667927
2022-08-05T07:03:03.578Z,9.667924
2022-08-05T07:04:03.581Z,9.667917
2022-08-05T07:05:03.604Z,9.667940
2022-08-05T07:06:05.648Z,9.667898
2022-08-05T07:07:06.261Z,9.667915
2022-08-05T07:08:03.589Z,9.667934
2022-08-05T07:09:03.983Z,9.667934
2022-08-05T07:10:03.759Z,9.667974
2022-08-05T07:11:03.529Z,9.668010
2022-08-05T07:12:03.611Z,9.668024
2022-08-05T07:13:03.515Z,9.668007
2022-08-05T07:14:03.535Z,9.667965
2022-08-05T07:15:03.542Z,9.667948
2022-08-05T07:16:04.587Z,9.667988
2022-08-05T07:18:00.541Z,9.667922
2022-08-05T07:18:08.536Z,9.667902
2022-08-05T07:19:04.484Z,9.667893
2022-08-05T07:21:05.753Z,9.667870
2022-08-05T07:22:03.441Z,9.667908
2022-08-05T07:23:04.543Z,9.667913
2022-08-05T07:24:03.459Z,9.667930
2022-08-05T07:25:23.870Z,9.667943
2022-08-05T07:26:04.430Z,9.667989
2022-08-05T07:27:03.438Z,9.668001
2022-08-05T07:28:08.209Z,9.667972
2022-08-05T07:29:05.426Z,9.667940
2022-08-05T07:30:24.083Z,9.667956
2022-08-05T07:31:04.363Z,9.667949
2022-08-05T07:32:04.054Z,9.667932
2022-08-05T07:33:05.562Z,9.667925
2022-08-05T07:34:04.356Z,9.667935
2022-08-05T07:35:56.748Z,9.667974
2022-08-05T07:36:20.891Z,9.667975
2022-08-05T07:37:05.338Z,9.667972
2022-08-05T07:38:03.315Z,9.667982
2022-08-05T07:39:03.330Z,9.667935
2022-08-05T07:40:26.340Z,9.667980
2022-08-05T07:42:07.028Z,9.668007
2022-08-05T07:42:14.677Z,9.667993
2022-08-05T07:43:04.874Z,9.667955
2022-08-05T07:44:05.284Z,9.667935
2022-08-05T07:45:03.247Z,9.667983
2022-08-05T07:46:04.273Z,9.667982
2022-08-05T07:47:07.904Z,9.667957
2022-08-05T07:48:04.235Z,9.667945
2022-08-05T07:49:06.030Z,9.667970
2022-08-05T07:50:06.498Z,9.667979
2022-08-05T07:51:03.261Z,9.667957
2022-08-05T07:52:04.235Z,9.667955
2022-08-05T07:53:03.201Z,9.667977
2022-08-05T07:54:03.225Z,9.667955
2022-08-05T07:55:03.198Z,9.668017
2022-08-05T07:56:05.590Z,9.668011
2022-08-05T07:57:41.973Z,9.667999
2022-08-05T07:58:05.656Z,9.668015
2022-08-05T07:59:03.696Z,9.667955
2022-08-05T08:00:03.207Z,9.667975
2022-08-05T08:01:06.149Z,9.667955
2022-08-05T08:02:04.158Z,9.667969
2022-08-05T08:03:14.290Z,9.667960
2022-08-05T08:04:04.119Z,9.667966
2022-08-05T08:05:03.105Z,9.667999
2022-08-05T08:06:03.140Z,9.668030
2022-08-05T08:07:05.427Z,9.667983
2022-08-05T08:08:03.129Z,9.668030
2022-08-05T08:09:03.077Z,9.668026
2022-08-05T08:10:03.069Z,9.667989
2022-08-05T08:11:03.130Z,9.667994
2022-08-05T08:12:11.465Z,9.668036
2022-08-05T08:13:05.118Z,9.667998
2022-08-05T08:14:03.042Z,9.667969
2022-08-05T08:15:03.509Z,9.667961
2022-08-05T08:16:51.007Z,9.667935
2022-08-05T08:17:04.022Z,9.667912
2022-08-05T08:18:05.032Z,9.668026
2022-08-05T08:19:04.017Z,9.668018
2022-08-05T08:20:21.107Z,9.667994
2022-08-05T08:21:04.202Z,9.668022
2022-08-05T08:22:04.990Z,9.668032
2022-08-05T08:23:03.028Z,9.667933
2022-08-05T08:24:05.298Z,9.668013
2022-08-05T08:25:16.062Z,9.667994
2022-08-05T08:26:04.813Z,9.667983
2022-08-05T08:27:02.951Z,9.667956
2022-08-05T08:28:02.983Z,9.667912
2022-08-05T08:29:22.192Z,9.667931
2022-08-05T08:30:27.677Z,9.667970
2022-08-05T08:31:04.311Z,9.668038
2022-08-05T08:32:02.910Z,9.667999
2022-08-05T08:33:08.083Z,9.668025
2022-08-05T08:34:03.899Z,9.668070
2022-08-05T08:35:02.871Z,9.668081
2022-08-05T08:36:37.129Z,9.668097
2022-08-05T08:37:05.625Z,9.668110
2022-08-05T08:38:02.883Z,9.668104
2022-08-05T08:39:02.901Z,9.668097
2022-08-05T08:40:04.392Z,9.668094
2022-08-05T08:41:02.853Z,9.668047
2022-08-05T08:42:05.468Z,9.668031
2022-08-05T08:45:16.263Z,9.668019
2022-08-05T08:45:23.211Z,9.667998
2022-08-05T08:45:25.207Z,9.668006
2022-08-05T08:46:03.792Z,9.668011
2022-08-05T08:47:02.789Z,9.668002
2022-08-05T08:48:12.330Z,9.668022
2022-08-05T08:50:13.106Z,9.668024
2022-08-05T08:50:31.062Z,9.668037
2022-08-05T08:51:30.644Z,9.668050
2022-08-05T08:52:13.106Z,9.668043
2022-08-05T08:53:11.858Z,9.668037
2022-08-05T08:54:03.723Z,9.668047
2022-08-05T08:55:02.735Z,9.668059
2022-08-05T08:56:06.054Z,9.668058
2022-08-05T08:57:03.809Z,9.668053
2022-08-05T08:58:02.724Z,9.668071
2022-08-05T08:59:07.071Z,9.668065
2022-08-05T09:00:04.271Z,9.668039
2022-08-05T09:01:02.806Z,9.668041
2022-08-05T09:02:03.256Z,9.668036
2022-08-05T09:03:02.689Z,9.668045
2022-08-05T09:04:02.688Z,9.668052
2022-08-05T09:05:17.399Z,9.668050
2022-08-05T09:06:08.840Z,9.668081
2022-08-05T09:07:03.639Z,9.668077
2022-08-05T09:08:03.617Z,9.668042
2022-08-05T09:09:02.646Z,9.668013
2022-08-05T09:10:02.617Z,9.668051
2022-08-05T09:11:03.236Z,9.668021
2022-08-05T09:12:13.341Z,9.668026
2022-08-05T09:13:05.266Z,9.668062
2022-08-05T09:14:54.771Z,9.668068
2022-08-05T09:15:06.058Z,9.668058
2022-08-05T09:16:02.588Z,9.668068
2022-08-05T09:17:02.572Z,9.668068
2022-08-05T09:18:02.560Z,9.668057
2022-08-05T09:19:06.809Z,9.668068
2022-08-05T09:20:04.729Z,9.668070
2022-08-05T09:21:03.542Z,9.668062
2022-08-05T09:22:22.109Z,9.668067
2022-08-05T09:23:05.054Z,9.668028
2022-08-05T09:24:02.603Z,9.668019
2022-08-05T09:25:13.836Z,9.668032
2022-08-05T09:26:06.299Z,9.668069
2022-08-05T09:27:03.546Z,9.668089
2022-08-05T09:28:04.169Z,9.668121
2022-08-05T09:29:02.489Z,9.668090
2022-08-05T09:30:06.448Z,9.668060
2022-08-05T09:31:03.492Z,9.668088
2022-08-05T09:32:41.787Z,9.668079
2022-08-05T09:33:04.616Z,9.668077
2022-08-05T09:34:02.454Z,9.668066
2022-08-05T09:35:02.503Z,9.668077
2022-08-05T09:36:11.568Z,9.668088
2022-08-05T09:37:04.439Z,9.668057
2022-08-05T09:38:17.021Z,9.668003
2022-08-05T09:39:03.501Z,9.668038
2022-08-05T09:40:34.889Z,9.668057
2022-08-05T09:41:02.409Z,9.668065
2022-08-05T09:42:02.389Z,9.668039
2022-08-05T09:43:02.399Z,9.668022
2022-08-05T09:44:03.375Z,9.668043
2022-08-05T09:45:17.907Z,9.668051
2022-08-05T09:46:07.706Z,9.668036
2022-08-05T09:47:03.468Z,9.668033
2022-08-05T09:48:03.376Z,9.668032
2022-08-05T09:49:08.214Z,9.668018
2022-08-05T09:50:03.620Z,9.667994
2022-08-05T09:51:03.317Z,9.667979
2022-08-05T09:52:03.308Z,9.668001
2022-08-05T09:53:02.311Z,9.667997
2022-08-05T09:54:02.291Z,9.667992
2022-08-05T09:55:55.610Z,9.667984
2022-08-05T09:56:04.977Z,9.668010
2022-08-05T09:57:03.304Z,9.668090
2022-08-05T09:58:03.268Z,9.668074
2022-08-05T09:59:04.234Z,9.668100
2022-08-05T10:00:07.325Z,9.668078
2022-08-05T10:01:14.738Z,9.668042
2022-08-05T10:02:03.269Z,9.668074
2022-08-05T10:03:02.266Z,9.668073
2022-08-05T10:04:02.287Z,9.668059
2022-08-05T10:05:02.226Z,9.668119
2022-08-05T10:06:06.017Z,9.668093
2022-08-05T10:07:19.681Z,9.668062
2022-08-05T10:08:35.823Z,9.668136
2022-08-05T10:09:03.194Z,9.668162
2022-08-05T10:10:14.042Z,9.668098
2022-08-05T10:11:03.175Z,9.668082
2022-08-05T10:12:07.268Z,9.668135
2022-08-05T10:13:09.700Z,9.668127
2022-08-05T10:14:03.148Z,9.668105
2022-08-05T10:15:02.162Z,9.668095
2022-08-05T10:16:02.152Z,9.668040
2022-08-05T10:17:02.122Z,9.668017
2022-08-05T10:18:02.164Z,9.668047
2022-08-05T10:19:09.351Z,9.668051
2022-08-05T10:20:09.846Z,9.667986
2022-08-05T10:21:08.575Z,9.668012
2022-08-05T10:22:03.107Z,9.668016
2022-08-05T10:23:02.123Z,9.668036
2022-08-05T10:24:06.263Z,9.668040
2022-08-05T10:25:03.063Z,9.668062
2022-08-05T10:26:03.075Z,9.668071
2022-08-05T10:27:02.093Z,9.668041
2022-08-05T10:28:16.611Z,9.668077
2022-08-05T10:29:03.097Z,9.668046
2022-08-05T10:30:41.068Z,9.668001
2022-08-05T10:32:54.430Z,9.668024
2022-08-05T10:32:54.908Z,9.668061
2022-08-05T10:33:03.257Z,9.668006
2022-08-05T10:34:02.035Z,9.668054
2022-08-05T10:35:02.000Z,9.668074
2022-08-05T10:36:01.986Z,9.668040
2022-08-05T10:37:02.021Z,9.667998
2022-08-05T10:38:01.991Z,9.668033
2022-08-05T10:39:05.214Z,9.668015
2022-08-05T10:40:16.727Z,9.668051
2022-08-05T10:41:03.034Z,9.668037
2022-08-05T10:42:01.931Z,9.668036
2022-08-05T10:43:01.957Z,9.668031
2022-08-05T10:44:01.919Z,9.668038
2022-08-05T10:45:01.928Z,9.668039
2022-08-05T10:46:06.633Z,9.668043
2022-08-05T10:47:01.936Z,9.668073
2022-08-05T10:48:29.414Z,9.668058
2022-08-05T10:49:09.786Z,9.668040
2022-08-05T10:50:20.803Z,9.668071
2022-08-05T10:51:03.346Z,9.668083
2022-08-05T10:52:02.738Z,9.668077
2022-08-05T10:53:01.888Z,9.668048
2022-08-05T10:54:23.371Z,9.668065
2022-08-05T10:55:02.840Z,9.668033
2022-08-05T10:56:04.645Z,9.668014
2022-08-05T10:57:02.844Z,9.668077
2022-08-05T10:58:01.909Z,9.668043
2022-08-05T10:59:07.318Z,9.668000
2022-08-05T11:00:09.068Z,9.668037
2022-08-05T11:01:03.310Z,9.668015
2022-08-05T11:02:04.983Z,9.667970
2022-08-05T11:03:23.831Z,9.667964
2022-08-05T11:04:02.828Z,9.668000
2022-08-05T11:05:01.787Z,9.667992
2022-08-05T11:06:01.766Z,9.668009
2022-08-05T11:07:01.794Z,9.667987
2022-08-05T11:08:12.678Z,9.667974
2022-08-05T11:09:03.743Z,9.668004
2022-08-05T11:10:10.098Z,9.668039
2022-08-05T11:11:07.776Z,9.668036
2022-08-05T11:12:02.718Z,9.668030
2022-08-05T11:13:01.711Z,9.668008
2022-08-05T11:14:01.731Z,9.667967
2022-08-05T11:15:19.467Z,9.667982
2022-08-05T11:16:02.682Z,9.667937
2022-08-05T11:17:14.153Z,9.667993
2022-08-05T11:18:03.715Z,9.667992
2022-08-05T11:19:01.698Z,9.667886
2022-08-05T11:20:10.226Z,9.667915
2022-08-05T11:21:02.791Z,9.667837
2022-08-05T11:22:01.634Z,9.667876
2022-08-05T11:23:06.097Z,9.667894
2022-08-05T11:24:14.646Z,9.667900
2022-08-05T11:25:26.707Z,9.667896
2022-08-05T11:26:04.585Z,9.667852
2022-08-05T11:27:01.634Z,9.667880
2022-08-05T11:28:01.596Z,9.667847
2022-08-05T11:29:04.302Z,9.667876
2022-08-05T11:30:03.576Z,9.667893
2022-08-05T11:31:01.590Z,9.667953
2022-08-05T11:32:01.584Z,9.667965
2022-08-05T11:33:01.593Z,9.667968
2022-08-05T11:34:01.537Z,9.667979
2022-08-05T11:35:01.544Z,9.668039
2022-08-05T11:36:07.495Z,9.667962
2022-08-05T11:37:02.892Z,9.667970
2022-08-05T11:38:30.794Z,9.668010
2022-08-05T11:39:02.637Z,9.668019
2022-08-05T11:40:03.484Z,9.668007
2022-08-05T11:41:12.784Z,9.667974
2022-08-05T11:42:04.595Z,9.668026
2022-08-05T11:43:02.479Z,9.668044
2022-08-05T11:44:05.531Z,9.668000
2022-08-05T11:45:02.498Z,9.667988
2022-08-05T11:46:27.241Z,9.668005
2022-08-05T11:47:14.052Z,9.667954
2022-08-05T11:48:02.488Z,9.668010
2022-08-05T11:49:01.465Z,9.668006
2022-08-05T11:50:01.689Z,9.668004
2022-08-05T11:51:01.409Z,9.668020
2022-08-05T11:52:01.488Z,9.668017
2022-08-05T11:53:02.427Z,9.668010
2022-08-05T11:54:01.386Z,9.668000
2022-08-05T11:55:07.180Z,9.668011
2022-08-05T11:56:02.382Z,9.668013
2022-08-05T11:57:01.376Z,9.667995
2022-08-05T11:58:10.223Z,9.668021
2022-08-05T11:59:02.410Z,9.668002
2022-08-05T12:00:01.371Z,9.667954
2022-08-05T12:01:01.377Z,9.667964
2022-08-05T12:02:01.330Z,9.668021
2022-08-05T12:03:01.351Z,9.668077
2022-08-05T12:04:01.352Z,9.668027
2022-08-05T12:05:01.330Z,9.668032
2022-08-05T12:06:02.324Z,9.668037
2022-08-05T12:07:01.282Z,9.668001
2022-08-05T12:08:03.226Z,9.668009
2022-08-05T12:09:02.303Z,9.668011
2022-08-05T12:10:08.993Z,9.667967
2022-08-05T12:11:06.024Z,9.668002
2022-08-05T12:12:01.279Z,9.668047
2022-08-05T12:13:01.250Z,9.668062
2022-08-05T12:14:04.114Z,9.668038
2022-08-05T12:15:01.256Z,9.668026
2022-08-05T12:16:01.233Z,9.668060
2022-08-05T12:17:01.556Z,9.668091
2022-08-05T12:18:04.042Z,9.668062
2022-08-05T12:19:02.200Z,9.668071
2022-08-05T12:20:27.463Z,9.668040
2022-08-05T12:21:02.225Z,9.668032
2022-08-05T12:22:01.387Z,9.668056
2022-08-05T12:23:01.167Z,9.668064
2022-08-05T12:24:05.174Z,9.668070
2022-08-05T12:25:02.161Z,9.668051